KCEZ/CEZ METAR and TAF weather

Enter ICAO airport designator
Station Type Date Time Source
KCEZ METAR 2020/12/01 20:53 UTC NOAA

KCEZ 012053Z AUTO 36014G23KT 10SM CLR 07/M13 A3011 RMK AO2 PK WND 34027/2018 SLP200 T00671133 56008


Station Type Date Time Source
KCEZ Decoded METAR 2020/12/01 20:53 UTC NOAA

CORTEZ MONTEZUMA COUNTY AIRPORT , CO, United States (KCEZ) 37-18N 108-38W 1797M
Dec 01, 2020 - 03:53 PM EST / 2020.12.01 2053 UTC
Wind: from the N (360 degrees) at 16 MPH (14 KT) gusting to 26 MPH (23 KT):0
Visibility: 10 mile(s):0
Sky conditions: clear
Temperature: 44.1 F (6.7 C)
Dew Point: 8.1 F (-13.3 C)
Relative Humidity: 22%
Pressure (altimeter): 30.11 in. Hg (1019 hPa)
Pressure tendency: 0.02 inches (0.8 hPa) lower than three hours ago
ob: KCEZ 012053Z AUTO 36014G23KT 10SM CLR 07/M13 A3011 RMK AO2 PK WND 34027/2018 SLP200 T00671133 56008
cycle: 21

Station Type Date Time Source
KCEZ TAF UTC NOAA

Error!

Example: see airport list